createdAt,value
2018-01-04T02:16:08.845Z,99.90
2018-01-04T02:18:49.098Z,96.40
2018-01-04T02:21:29.330Z,96.40
2018-01-04T02:23:56.850Z,96.30
2018-01-04T02:26:36.350Z,96.30
2018-01-04T02:29:29.451Z,96.20
2018-01-04T02:32:09.734Z,96.20
2018-01-04T02:34:50.010Z,96.30
2018-01-04T02:37:29.512Z,96.20
2018-01-04T02:40:08.765Z,96.40
2018-01-04T02:42:48.899Z,96.30
2018-01-04T02:45:51.990Z,96.40
2018-01-04T02:48:19.489Z,96.40
2018-01-04T02:50:47.002Z,96.30
2018-01-04T02:53:14.510Z,96.20
2018-01-04T02:55:42.003Z,96.10
2018-01-04T02:58:09.514Z,96.30
2018-01-04T03:00:37.001Z,96.30
2018-01-04T03:03:05.251Z,96.50
2018-01-04T03:05:32.753Z,96.50
2018-01-04T03:11:01.850Z,96.30
2018-01-04T03:13:29.347Z,96.50
2018-01-04T03:15:56.850Z,96.50
2018-01-04T03:18:25.111Z,96.70
2018-01-04T03:20:52.616Z,96.70
2018-01-04T03:23:25.762Z,96.80
2018-01-04T03:29:10.957Z,96.80
2018-01-04T03:31:44.085Z,96.80
2018-01-04T03:34:17.345Z,96.90
2018-01-04T03:36:50.505Z,96.80
2018-01-04T03:39:23.563Z,96.90
2018-01-04T03:41:56.689Z,97.00
2018-01-04T03:47:33.929Z,97.00
2018-01-04T03:50:17.058Z,96.90
2018-01-04T03:52:45.326Z,96.80
2018-01-04T03:55:19.428Z,96.80
2018-01-04T03:57:52.686Z,96.80
2018-01-04T04:00:26.013Z,96.80
2018-01-04T04:06:03.725Z,96.80
2018-01-04T04:08:36.955Z,97.00
2018-01-04T04:11:04.443Z,96.80
2018-01-04T04:13:32.714Z,96.90
2018-01-04T04:16:00.974Z,96.80
2018-01-04T04:18:28.525Z,96.80
2018-01-04T04:23:59.129Z,97.00
2018-01-04T04:26:26.617Z,97.00
2018-01-04T04:28:54.901Z,97.10
2018-01-04T04:31:23.162Z,97.20
2018-01-04T04:33:51.437Z,97.30
2018-01-04T04:36:19.718Z,97.30
2018-01-04T04:38:47.973Z,97.30
2018-01-04T04:41:15.478Z,97.30
2018-01-04T04:43:42.969Z,97.10
2018-01-04T04:46:11.245Z,97.20
2018-01-04T04:48:39.511Z,97.20
2018-01-04T04:51:07.790Z,97.50
2018-01-04T04:53:36.045Z,97.30
2018-01-04T04:56:03.555Z,97.30
2018-01-04T04:58:31.059Z,97.30
2018-01-04T05:00:59.314Z,97.30
2018-01-04T05:03:26.813Z,97.30
2018-01-04T05:05:54.302Z,97.30
2018-01-04T05:08:21.861Z,97.30
2018-01-04T05:10:49.354Z,97.50
2018-01-04T05:13:18.374Z,98.20
2018-01-04T05:18:47.117Z,97.70
2018-01-04T05:21:15.377Z,98.00
2018-01-04T05:23:42.878Z,98.00
2018-01-04T05:26:11.134Z,98.00
2018-01-04T05:28:39.390Z,97.90
2018-01-04T05:31:06.894Z,97.90
2018-01-04T05:33:34.382Z,97.90
2018-01-04T05:36:01.921Z,97.80
2018-01-04T05:38:29.415Z,97.90
2018-01-04T05:40:56.923Z,97.90
2018-01-04T05:43:24.418Z,97.80
2018-01-04T05:45:51.916Z,97.80
2018-01-04T05:48:20.173Z,97.80
2018-01-04T05:50:47.689Z,97.80
2018-01-04T05:53:15.190Z,97.80
2018-01-04T05:55:43.446Z,97.80
2018-01-04T05:58:10.954Z,97.80
2018-01-04T06:00:38.438Z,97.60
2018-01-04T06:03:05.950Z,97.70
2018-01-04T06:05:34.213Z,97.80
2018-01-04T06:08:01.792Z,97.80
2018-01-04T06:13:30.005Z,97.90
2018-01-04T06:15:57.502Z,97.80
2018-01-04T06:18:24.993Z,97.80
2018-01-04T06:20:53.261Z,97.70
2018-01-04T06:23:21.517Z,97.80
2018-01-04T06:25:49.019Z,97.80
2018-01-04T06:28:16.515Z,97.60
2018-01-04T06:30:44.018Z,97.50
2018-01-04T06:33:12.298Z,97.20
2018-01-04T06:35:40.566Z,97.40
2018-01-04T06:38:08.815Z,97.20
2018-01-04T06:40:36.299Z,97.20
2018-01-04T06:43:04.571Z,97.30
2018-01-04T06:45:32.834Z,97.10
2018-01-04T06:48:00.338Z,97.10
2018-01-04T06:50:27.850Z,97.20
2018-01-04T06:52:55.351Z,97.30
2018-01-04T06:55:22.845Z,97.30
2018-01-04T06:57:50.355Z,97.20
2018-01-04T07:00:17.849Z,97.20
2018-01-04T07:02:45.371Z,97.20
2018-01-04T07:08:14.471Z,97.20
2018-01-04T07:10:42.739Z,97.20
2018-01-04T07:13:11.007Z,97.30
2018-01-04T07:15:39.282Z,97.40
2018-01-04T07:18:07.537Z,97.30
2018-01-04T07:20:35.045Z,97.20
2018-01-04T07:23:02.534Z,97.40
2018-01-04T07:25:30.036Z,97.50
2018-01-04T07:27:57.542Z,97.50
2018-01-04T07:30:25.058Z,97.50
2018-01-04T07:32:53.316Z,97.40
2018-01-04T07:35:20.809Z,97.40
2018-01-04T07:37:49.086Z,97.30
2018-01-04T07:40:17.404Z,97.30
2018-01-04T07:42:45.678Z,97.30
2018-01-04T07:45:13.950Z,97.30
2018-01-04T07:47:41.449Z,97.30
2018-01-04T07:50:08.962Z,97.10
2018-01-04T07:52:37.250Z,97.30
2018-01-04T07:55:04.843Z,97.30
2018-01-04T07:57:32.334Z,97.30
2018-01-04T08:02:58.174Z,97.30
2018-01-04T08:05:25.685Z,97.20
2018-01-04T08:07:53.945Z,97.10
2018-01-04T08:10:21.449Z,97.10
2018-01-04T08:12:48.950Z,97.50
2018-01-04T08:15:16.458Z,97.20
2018-01-04T08:17:43.941Z,97.20
2018-01-04T08:20:12.213Z,97.00
2018-01-04T08:22:40.491Z,96.90
2018-01-04T08:25:08.750Z,96.90
2018-01-04T08:27:36.258Z,96.90
2018-01-04T08:30:03.755Z,97.20
2018-01-04T08:32:31.259Z,97.00
2018-01-04T08:34:58.750Z,96.50
2018-01-04T08:37:26.293Z,96.60
2018-01-04T08:39:53.803Z,96.40
2018-01-04T08:42:22.077Z,96.40
2018-01-04T08:44:50.341Z,96.80
2018-01-04T08:47:18.594Z,97.00
2018-01-04T08:49:46.117Z,96.90
2018-01-04T08:52:13.607Z,97.20
2018-01-04T08:54:41.109Z,97.60
2018-01-04T08:57:08.630Z,98.40
2018-01-04T09:00:26.056Z,99.90
2018-01-04T09:02:54.372Z,99.90
2018-01-04T09:05:21.886Z,99.90
2018-01-04T09:07:49.391Z,99.90
2018-01-04T09:10:16.882Z,99.90
2018-01-04T09:12:44.407Z,99.90
2018-01-04T09:15:17.754Z,99.90
2018-01-04T09:17:45.250Z,99.90
2018-01-04T09:20:12.738Z,99.90
2018-01-04T09:22:40.242Z,99.90
2018-01-04T09:25:08.518Z,99.90
2018-01-04T09:27:36.798Z,99.90
2018-01-04T09:30:05.056Z,99.90
2018-01-04T09:32:32.558Z,99.90
2018-01-04T09:35:00.169Z,99.90
2018-01-04T09:37:28.426Z,99.90
2018-01-04T09:39:55.937Z,99.90
2018-01-04T09:42:23.438Z,99.90
2018-01-04T09:44:50.942Z,99.90
2018-01-04T09:47:19.199Z,99.90
2018-01-04T09:49:47.483Z,99.90
2018-01-04T09:52:15.750Z,99.90
2018-01-04T09:54:43.239Z,99.90
2018-01-04T09:57:10.798Z,99.90
2018-01-04T09:59:38.282Z,99.90
2018-01-04T10:02:05.802Z,99.90
2018-01-04T10:04:34.054Z,99.90
2018-01-04T10:07:02.380Z,99.90
2018-01-04T10:15:20.258Z,99.90
2018-01-04T10:17:47.832Z,99.90
2018-01-04T10:20:15.341Z,99.90
2018-01-04T10:22:42.838Z,99.90
2018-01-04T10:25:10.373Z,99.90
2018-01-04T10:30:41.368Z,99.90
2018-01-04T10:33:08.873Z,99.90
2018-01-04T10:35:36.358Z,99.90
2018-01-04T10:38:04.638Z,99.90
2018-01-04T10:40:32.892Z,99.90
2018-01-04T10:43:00.398Z,99.90
2018-01-04T10:45:27.890Z,99.90
2018-01-04T10:47:55.407Z,99.90
2018-01-04T10:50:23.696Z,99.90
2018-01-04T10:52:51.215Z,99.90
2018-01-04T10:55:18.703Z,99.90
2018-01-04T10:57:46.967Z,99.90
2018-01-04T11:00:14.479Z,99.90
2018-01-04T11:02:41.986Z,99.90
2018-01-04T11:05:10.258Z,99.90
2018-01-04T11:07:38.565Z,99.90
2018-01-04T11:10:06.065Z,99.90
2018-01-04T11:12:33.559Z,99.90
2018-01-04T11:15:01.833Z,99.90
2018-01-04T11:17:30.169Z,99.90
2018-01-04T11:19:57.650Z,99.90
2018-01-04T11:25:25.698Z,99.90
2018-01-04T11:27:53.224Z,99.90
2018-01-04T11:30:20.779Z,99.90
2018-01-04T11:32:48.340Z,99.90
2018-01-04T11:35:15.841Z,99.90
2018-01-04T11:37:43.338Z,99.90
2018-01-04T11:40:10.830Z,99.90
2018-01-04T11:42:38.333Z,99.90
2018-01-04T11:45:05.854Z,99.90
2018-01-04T11:47:33.342Z,99.90
2018-01-04T11:50:00.857Z,99.90
2018-01-04T11:52:28.345Z,99.90
2018-01-04T11:54:55.849Z,99.90
2018-01-04T11:57:24.101Z,99.90
2018-01-04T11:59:51.602Z,99.90
2018-01-04T12:02:19.100Z,99.90
2018-01-04T12:04:46.599Z,99.90
2018-01-04T12:07:14.096Z,99.90
2018-01-04T12:09:42.358Z,99.90
2018-01-04T12:12:10.674Z,99.90
2018-01-04T12:14:38.174Z,99.90
2018-01-04T12:20:08.130Z,99.90
2018-01-04T12:22:35.630Z,99.90
2018-01-04T12:25:03.119Z,99.90
2018-01-04T12:27:30.631Z,99.90
2018-01-04T12:29:58.885Z,99.90
2018-01-04T12:32:26.459Z,99.90
2018-01-04T12:34:54.774Z,99.90
2018-01-04T12:37:22.293Z,99.90
2018-01-04T12:39:49.852Z,99.90
2018-01-04T12:42:17.366Z,99.90
2018-01-04T12:44:44.873Z,99.90
2018-01-04T12:47:12.378Z,99.90
2018-01-04T12:49:39.895Z,99.90
2018-01-04T12:52:07.406Z,99.90
2018-01-04T12:54:34.928Z,99.90
2018-01-04T12:57:03.194Z,99.90
2018-01-04T12:59:31.450Z,99.90
2018-01-04T13:01:58.946Z,99.90
2018-01-04T13:04:26.438Z,99.90
2018-01-04T13:06:53.945Z,99.90
2018-01-04T13:09:21.439Z,99.90
2018-01-04T13:14:52.816Z,99.90
2018-01-04T13:17:21.085Z,99.90
2018-01-04T13:19:49.350Z,99.90
2018-01-04T13:22:16.834Z,99.90
2018-01-04T13:24:45.106Z,99.90
2018-01-04T13:27:13.362Z,99.90
2018-01-04T13:29:40.870Z,99.90
2018-01-04T13:32:08.370Z,99.90
2018-01-04T13:34:36.650Z,99.90
2018-01-04T13:37:04.907Z,99.90
2018-01-04T13:39:32.420Z,99.90
2018-01-04T13:41:59.929Z,99.90
2018-01-04T13:44:27.417Z,99.90
2018-01-04T13:46:54.921Z,99.90
2018-01-04T13:49:22.437Z,99.90
2018-01-04T13:51:49.938Z,99.90
2018-01-04T13:54:17.442Z,99.90
2018-01-04T13:56:45.713Z,99.90
2018-01-04T13:59:13.963Z,99.90
2018-01-04T14:01:41.465Z,99.90
2018-01-04T14:04:08.946Z,99.90
2018-01-04T14:09:37.542Z,99.90
2018-01-04T14:12:05.817Z,99.90
2018-01-04T14:14:34.094Z,99.90
2018-01-04T14:17:02.354Z,99.90
2018-01-04T14:19:29.846Z,99.90
2018-01-04T14:21:58.099Z,99.90
2018-01-04T14:24:25.704Z,99.90
2018-01-04T14:26:53.205Z,99.90
2018-01-04T14:29:20.698Z,99.90
2018-01-04T14:31:48.946Z,99.90
2018-01-04T14:34:16.459Z,99.90
2018-01-04T14:36:43.953Z,99.90
2018-01-04T14:39:11.455Z,99.90
2018-01-04T14:41:39.727Z,99.90
2018-01-04T14:44:07.343Z,99.90
2018-01-04T14:46:35.625Z,99.90
2018-01-04T14:49:03.874Z,99.90
2018-01-04T14:51:31.389Z,99.90
2018-01-04T14:53:58.878Z,99.90
2018-01-04T14:56:26.381Z,99.90
2018-01-04T14:58:54.657Z,99.90
2018-01-04T15:04:22.869Z,99.90
2018-01-04T15:06:51.139Z,99.90
2018-01-04T15:09:19.430Z,99.90
2018-01-04T15:11:47.691Z,99.90
2018-01-04T15:14:15.203Z,99.90
2018-01-04T15:16:42.698Z,99.90
2018-01-04T15:19:10.204Z,99.90
2018-01-04T15:21:37.924Z,99.90
2018-01-04T15:24:05.437Z,99.90
2018-01-04T15:26:32.938Z,99.90
2018-01-04T15:29:00.431Z,99.90
2018-01-04T15:32:21.533Z,99.90
2018-01-04T15:34:49.025Z,99.90
2018-01-04T15:37:16.546Z,99.90
2018-01-04T15:39:44.050Z,99.90
2018-01-04T15:42:11.579Z,99.90
2018-01-04T15:44:39.841Z,99.90
2018-01-04T15:47:08.267Z,99.90
2018-01-04T15:49:35.829Z,99.90
2018-01-04T15:52:03.327Z,99.90
2018-01-04T15:54:30.874Z,99.90
2018-01-04T15:56:58.369Z,99.90
2018-01-04T15:59:26.642Z,99.90
2018-01-04T16:01:54.902Z,99.90
2018-01-04T16:04:22.423Z,99.90
2018-01-04T16:06:50.641Z,99.90
2018-01-04T16:09:18.148Z,99.90
2018-01-04T16:11:45.666Z,99.90
2018-01-04T16:14:13.955Z,99.90
2018-01-04T16:16:42.226Z,99.90
2018-01-04T16:19:10.494Z,99.90
2018-01-04T16:21:38.005Z,99.90
2018-01-04T16:24:05.506Z,99.90
2018-01-04T16:26:33.815Z,99.90
2018-01-04T16:29:02.201Z,99.90
2018-01-04T16:31:29.693Z,99.90
2018-01-04T16:33:57.210Z,99.90
2018-01-04T16:36:25.474Z,99.90
2018-01-04T16:38:53.761Z,99.90
2018-01-04T16:41:22.026Z,99.90
2018-01-04T16:43:50.297Z,99.90
2018-01-04T16:46:18.577Z,99.90
2018-01-04T16:48:46.842Z,99.90
2018-01-04T16:51:14.359Z,99.90
2018-01-04T16:53:41.862Z,99.80
2018-01-04T16:56:09.381Z,99.40
2018-01-04T16:58:36.891Z,99.50
2018-01-04T17:01:05.154Z,98.50
2018-01-04T17:03:32.685Z,98.50
2018-01-04T17:06:00.191Z,98.50
2018-01-04T17:08:28.463Z,98.80
2018-01-04T17:10:56.763Z,98.50
2018-01-04T17:13:24.307Z,98.50
2018-01-04T17:15:52.580Z,97.40
2018-01-04T17:18:20.845Z,96.80
2018-01-04T17:20:49.143Z,95.80
2018-01-04T17:23:16.664Z,95.70
2018-01-04T17:25:44.177Z,96.30
2018-01-04T17:28:11.690Z,95.90
2018-01-04T17:30:39.210Z,95.90
2018-01-04T17:33:06.737Z,95.90
2018-01-04T17:35:35.015Z,96.00
2018-01-04T17:38:03.325Z,95.90
2018-01-04T17:40:30.838Z,95.90
2018-01-04T17:42:59.111Z,96.00
2018-01-04T17:45:27.383Z,95.70
2018-01-04T17:47:54.902Z,95.70
2018-01-04T17:50:22.402Z,95.90
2018-01-04T17:52:50.695Z,95.90
2018-01-04T17:55:18.985Z,95.80
2018-01-04T17:57:46.482Z,95.80
2018-01-04T18:00:13.999Z,95.70
2018-01-04T18:02:41.513Z,94.90
2018-01-04T18:05:09.051Z,94.30
2018-01-04T18:07:36.562Z,94.40
2018-01-04T18:10:04.840Z,94.20
2018-01-04T18:12:33.181Z,93.60
2018-01-04T18:15:00.703Z,93.60
2018-01-04T18:17:28.198Z,93.20
2018-01-04T18:19:55.694Z,93.20
2018-01-04T18:22:23.970Z,92.30
2018-01-04T18:24:52.230Z,92.20
2018-01-04T18:27:19.742Z,92.20
2018-01-04T18:29:47.230Z,92.10
2018-01-04T18:32:14.733Z,92.10
2018-01-04T18:34:42.997Z,91.30
2018-01-04T18:37:11.277Z,91.30
2018-01-04T18:39:39.529Z,91.30
2018-01-04T18:42:07.027Z,91.30
2018-01-04T18:44:34.535Z,91.10
2018-01-04T18:47:02.033Z,91.40
2018-01-04T18:49:30.337Z,92.10
2018-01-04T18:51:57.842Z,92.00
2018-01-04T18:54:25.356Z,92.40
2018-01-04T18:56:52.854Z,92.60
2018-01-04T18:59:20.381Z,92.60
2018-01-04T19:01:47.923Z,92.70
2018-01-04T19:04:15.414Z,92.70
2018-01-04T19:06:42.923Z,92.60
2018-01-04T19:09:11.300Z,93.00
2018-01-04T19:11:40.736Z,93.00
2018-01-04T19:14:08.241Z,93.00
2018-01-04T19:16:35.754Z,92.90
2018-01-04T19:19:03.249Z,92.90
2018-01-04T19:21:30.810Z,92.80
2018-01-04T19:23:58.286Z,92.70
2018-01-04T19:26:26.557Z,92.80
2018-01-04T19:28:54.841Z,92.70
2018-01-04T19:31:23.107Z,93.00
2018-01-04T19:33:50.615Z,92.90
2018-01-04T19:36:18.171Z,92.80
2018-01-04T19:38:45.698Z,93.00
2018-01-04T19:41:13.962Z,93.20
2018-01-04T19:43:41.474Z,93.10
2018-01-04T19:46:08.975Z,93.40
2018-01-04T19:48:37.986Z,93.30
2018-01-04T19:51:06.287Z,93.50
2018-01-04T19:53:33.790Z,93.50
2018-01-04T19:56:01.321Z,93.40
2018-01-04T19:58:28.813Z,93.20
2018-01-04T20:00:56.326Z,93.30
2018-01-04T20:03:23.833Z,93.30
2018-01-04T20:05:51.323Z,93.30
2018-01-04T20:08:19.598Z,92.90
2018-01-04T20:10:47.874Z,92.30
2018-01-04T20:13:16.158Z,91.60
2018-01-04T20:15:44.424Z,91.60
2018-01-04T20:18:13.318Z,92.00
2018-01-04T20:20:41.628Z,92.30
2018-01-04T20:23:09.121Z,92.20
2018-01-04T20:25:36.630Z,92.40
2018-01-04T20:28:04.140Z,92.40
2018-01-04T20:30:31.662Z,92.00
2018-01-04T20:32:59.158Z,91.90
2018-01-04T20:35:26.689Z,91.80
2018-01-04T20:37:54.186Z,91.70
2018-01-04T20:40:21.694Z,91.30
2018-01-04T20:42:49.213Z,91.10
2018-01-04T20:45:16.715Z,91.00
2018-01-04T20:47:44.225Z,91.10
2018-01-04T20:50:11.722Z,91.00
2018-01-04T20:52:39.238Z,90.90
2018-01-04T20:55:07.511Z,90.70
2018-01-04T20:57:35.011Z,90.60
2018-01-04T21:00:03.714Z,90.50
2018-01-04T21:02:31.222Z,90.70
2018-01-04T21:04:59.519Z,90.90
2018-01-04T21:07:27.039Z,90.90
2018-01-04T21:09:54.552Z,91.00
2018-01-04T21:12:22.830Z,91.10
2018-01-04T21:14:50.328Z,91.40
2018-01-04T21:17:17.842Z,91.20
2018-01-04T21:19:46.120Z,91.50
2018-01-04T21:22:14.391Z,91.60
2018-01-04T21:24:42.668Z,91.70
2018-01-04T21:27:10.942Z,91.80
2018-01-04T21:29:39.211Z,91.70
2018-01-04T21:32:07.486Z,91.70
2018-01-04T21:34:35.766Z,91.90
2018-01-04T21:37:04.037Z,92.10
2018-01-04T21:39:32.314Z,92.30
2018-01-04T21:42:00.580Z,92.20
2018-01-04T21:44:28.091Z,92.20
2018-01-04T21:46:55.615Z,92.20
2018-01-04T21:49:23.891Z,92.30
2018-01-04T21:51:52.193Z,92.30
2018-01-04T21:54:19.702Z,92.30
2018-01-04T21:56:47.207Z,92.10
2018-01-04T21:59:16.282Z,92.10
2018-01-04T22:01:44.566Z,92.40
2018-01-04T22:04:13.955Z,92.40
2018-01-04T22:06:42.225Z,92.70
2018-01-04T22:09:09.815Z,92.40
2018-01-04T22:11:38.079Z,92.30
2018-01-04T22:14:06.356Z,92.50
2018-01-04T22:16:34.623Z,92.70
2018-01-04T22:19:02.905Z,92.60
2018-01-04T22:21:31.177Z,92.60
2018-01-04T22:23:59.441Z,92.80
2018-01-04T22:26:26.966Z,92.80
2018-01-04T22:28:54.472Z,92.90
2018-01-04T22:31:22.754Z,92.70
2018-01-04T22:33:51.010Z,92.60
2018-01-04T22:36:18.525Z,92.50
2018-01-04T22:38:46.017Z,93.20
2018-01-04T22:41:13.518Z,93.00
2018-01-04T22:43:41.785Z,93.00
2018-01-04T22:46:10.042Z,93.10
2018-01-04T22:48:37.551Z,93.10
2018-01-04T22:51:05.043Z,93.30
2018-01-04T22:53:32.583Z,93.00
2018-01-04T22:56:00.092Z,92.50
2018-01-04T22:58:28.351Z,92.70
2018-01-04T23:00:55.853Z,92.70
2018-01-04T23:03:23.350Z,92.60
2018-01-04T23:05:50.857Z,92.40
2018-01-04T23:08:19.118Z,92.50
2018-01-04T23:10:47.375Z,92.60
2018-01-04T23:16:02.603Z,92.60
2018-01-04T23:18:30.891Z,92.60
2018-01-04T23:20:58.382Z,92.60
2018-01-04T23:23:25.886Z,92.50
2018-01-04T23:25:54.146Z,92.70
2018-01-04T23:28:21.651Z,93.00
2018-01-04T23:30:49.150Z,92.80
2018-01-04T23:33:16.657Z,93.00
2018-01-04T23:35:44.145Z,93.30
2018-01-04T23:38:11.661Z,93.10
2018-01-04T23:40:39.909Z,93.30
2018-01-04T23:43:07.408Z,93.30
2018-01-04T23:45:34.922Z,93.30
2018-01-04T23:48:02.411Z,93.20
2018-01-04T23:50:31.397Z,93.30
2018-01-04T23:52:59.653Z,93.30
2018-01-04T23:55:27.173Z,93.30
2018-01-04T23:57:54.661Z,93.40
